Time;durP1;ratioP1;P1;durP2;ratioP2;P2;SDS_P1;SDS_P2;PMS_P1;PMS_P2;Temp;Humidity;BMP_temperature;BMP_pressure;BME280_temperature;BME280_humidity;BME280_pressure;Samples;Min_cycle;Max_cycle;Signal;HPM_P1;HPM_P2
2023/09/05 04:01:38;;;;;;;5.40;4.90;;;13.50;99.90;;;;;;6111417;23;20708;-71
2023/09/05 04:04:07;;;;;;;5.30;4.80;;;13.50;99.90;;;;;;6150078;23;20938;-71
2023/09/05 04:06:33;;;;;;;5.63;4.97;;;13.50;99.90;;;;;;6151163;23;20525;-71
2023/09/05 04:09:00;;;;;;;5.60;5.00;;;13.50;99.90;;;;;;6151337;23;20418;-70
2023/09/05 04:11:27;;;;;;;5.00;4.60;;;13.50;99.90;;;;;;6152023;23;20522;-71
2023/09/05 04:13:53;;;;;;;3.63;3.43;;;13.50;99.90;;;;;;6152529;23;20426;-71
2023/09/05 04:16:20;;;;;;;4.80;4.43;;;13.40;99.90;;;;;;6151795;23;20415;-71
2023/09/05 04:18:48;;;;;;;4.63;4.33;;;13.40;99.90;;;;;;6148687;23;20426;-70
2023/09/05 04:21:15;;;;;;;5.10;4.70;;;13.40;99.90;;;;;;6148832;23;20445;-71
2023/09/05 04:23:42;;;;;;;5.83;5.33;;;13.40;99.90;;;;;;6151995;23;20739;-71
2023/09/05 04:26:08;;;;;;;4.83;4.33;;;13.40;99.90;;;;;;6152413;23;20429;-71
2023/09/05 04:28:35;;;;;;;5.87;5.27;;;13.40;99.90;;;;;;6152728;23;20984;-69
2023/09/05 04:31:03;;;;;;;4.97;4.50;;;13.40;99.90;;;;;;6153522;23;20414;-69
2023/09/05 04:33:32;;;;;;;5.80;5.30;;;13.40;99.90;;;;;;6152739;23;20418;-70
2023/09/05 04:36:00;;;;;;;7.50;4.60;;;13.40;99.90;;;;;;6154181;23;20421;-71
2023/09/05 04:38:27;;;;;;;4.83;4.50;;;13.40;99.90;;;;;;6151868;23;20521;-70
2023/09/05 04:40:54;;;;;;;4.60;4.20;;;13.40;99.90;;;;;;6153100;23;20505;-71
2023/09/05 04:43:21;;;;;;;3.90;3.70;;;13.50;99.90;;;;;;6153433;23;20422;-70
2023/09/05 04:45:54;;;;;;;5.57;5.13;;;13.40;99.90;;;;;;6152841;23;20415;-71
2023/09/05 04:48:20;;;;;;;7.97;4.83;;;13.40;99.90;;;;;;6153639;23;20457;-70
2023/09/05 04:50:50;;;;;;;5.00;4.70;;;13.40;99.90;;;;;;6153733;23;20426;-70
2023/09/05 04:53:21;;;;;;;5.37;4.87;;;13.40;99.90;;;;;;6154742;23;20423;-70
2023/09/05 04:55:51;;;;;;;6.80;5.13;;;13.40;99.90;;;;;;6155066;23;20425;-71
2023/09/05 04:58:18;;;;;;;5.40;4.60;;;13.40;99.90;;;;;;6154366;23;20521;-71
2023/09/05 05:00:47;;;;;;;5.10;4.70;;;13.40;99.90;;;;;;6154235;23;20419;-70
2023/09/05 05:03:14;;;;;;;5.70;5.20;;;13.40;99.90;;;;;;6153511;23;20419;-71
2023/09/05 05:05:40;;;;;;;5.23;4.73;;;13.40;99.90;;;;;;6154806;23;20449;-70
2023/09/05 05:08:07;;;;;;;5.83;5.00;;;13.40;99.90;;;;;;6155648;23;20446;-70
2023/09/05 05:10:38;;;;;;;5.50;5.10;;;13.40;99.90;;;;;;6156783;23;20429;-70
2023/09/05 05:13:05;;;;;;;5.37;4.97;;;13.40;99.90;;;;;;6156217;23;20407;-70
2023/09/05 05:15:32;;;;;;;5.27;4.87;;;13.40;99.90;;;;;;6154615;23;20907;-70
2023/09/05 05:17:59;;;;;;;5.50;5.10;;;13.40;99.90;;;;;;6155844;23;20426;-71
2023/09/05 05:20:25;;;;;;;4.87;4.50;;;13.50;99.90;;;;;;6154738;23;20418;-68
2023/09/05 05:22:52;;;;;;;4.90;4.40;;;13.50;99.90;;;;;;6155455;23;20441;-70
2023/09/05 05:25:19;;;;;;;5.50;4.10;;;13.50;99.90;;;;;;6155885;23;20432;-70
2023/09/05 05:27:47;;;;;;;5.77;4.70;;;13.60;99.90;;;;;;6154499;23;20455;-70
2023/09/05 05:30:14;;;;;;;5.23;4.73;;;13.60;99.90;;;;;;6155099;23;20453;-71
2023/09/05 05:32:40;;;;;;;5.30;4.90;;;13.60;99.90;;;;;;6155113;23;20934;-71
2023/09/05 05:35:10;;;;;;;6.17;5.10;;;13.60;99.90;;;;;;6156221;23;20418;-69
2023/09/05 05:37:36;;;;;;;5.73;4.80;;;13.70;99.90;;;;;;6153369;23;20430;-70
2023/09/05 05:40:03;;;;;;;6.03;5.50;;;13.70;99.90;;;;;;6154945;23;20475;-70
2023/09/05 05:42:30;;;;;;;6.23;5.50;;;13.80;99.90;;;;;;6155488;23;20422;-70
2023/09/05 05:44:58;;;;;;;6.00;5.20;;;13.90;99.90;;;;;;6155377;23;20961;-70
2023/09/05 05:47:25;;;;;;;5.47;5.00;;;13.90;99.90;;;;;;6154801;23;20446;-70
2023/09/05 05:49:51;;;;;;;5.33;4.80;;;14.00;99.90;;;;;;6152011;23;20477;-70
2023/09/05 05:52:18;;;;;;;6.03;5.43;;;14.00;99.90;;;;;;6151574;23;20422;-70
2023/09/05 05:54:45;;;;;;;5.13;4.80;;;14.00;99.90;;;;;;6155600;23;20426;-71
2023/09/05 05:57:12;;;;;;;5.87;5.43;;;14.10;99.90;;;;;;6155449;23;20762;-71
2023/09/05 05:59:40;;;;;;;5.43;4.93;;;14.10;99.90;;;;;;6153684;23;20439;-70
2023/09/05 06:02:08;;;;;;;6.17;5.23;;;14.20;99.90;;;;;;6151444;23;20796;-70
2023/09/05 06:04:35;;;;;;;5.90;5.43;;;14.30;99.90;;;;;;6153511;23;20419;-70
2023/09/05 06:07:01;;;;;;;4.93;4.63;;;14.40;99.90;;;;;;6154616;23;20438;-69
2023/09/05 06:09:28;;;;;;;7.73;5.43;;;14.50;99.90;;;;;;6151724;23;20435;-70
2023/09/05 06:11:55;;;;;;;10.00;5.00;;;14.50;99.90;;;;;;6155783;23;20441;-70
2023/09/05 06:14:21;;;;;;;5.30;4.90;;;14.60;99.90;;;;;;6154078;23;20419;-71
2023/09/05 06:16:48;;;;;;;5.37;5.03;;;14.70;99.90;;;;;;6155321;23;20422;-71
2023/09/05 06:19:17;;;;;;;5.60;5.00;;;14.80;99.90;;;;;;6153219;23;20479;-71
2023/09/05 06:21:46;;;;;;;5.10;4.77;;;14.90;99.90;;;;;;6154580;23;21001;-71
2023/09/05 06:24:13;;;;;;;5.00;4.60;;;15.00;99.90;;;;;;6154350;23;20418;-70
2023/09/05 06:26:41;;;;;;;4.40;4.20;;;15.10;99.90;;;;;;6154529;23;20441;-70
2023/09/05 06:29:08;;;;;;;4.90;4.70;;;15.20;99.90;;;;;;6154120;23;20457;-71
2023/09/05 06:31:34;;;;;;;4.10;3.90;;;15.30;99.90;;;;;;6154919;23;20483;-70
2023/09/05 06:34:01;;;;;;;4.63;4.30;;;15.40;99.90;;;;;;6154549;23;20748;-69
2023/09/05 06:36:29;;;;;;;5.00;4.60;;;15.40;99.90;;;;;;6153976;23;20419;-71
2023/09/05 06:38:56;;;;;;;4.50;4.17;;;15.50;99.90;;;;;;6152905;23;20435;-70
2023/09/05 06:41:22;;;;;;;4.77;4.33;;;15.60;99.90;;;;;;6154307;23;20915;-71
2023/09/05 06:43:50;;;;;;;4.50;4.20;;;15.60;99.90;;;;;;6154152;23;20422;-71
2023/09/05 06:46:17;;;;;;;5.03;4.63;;;15.80;99.90;;;;;;6154534;23;20926;-71
2023/09/05 06:48:43;;;;;;;5.00;3.57;;;15.80;99.90;;;;;;6154268;23;20892;-70
2023/09/05 06:51:10;;;;;;;7.20;4.43;;;15.90;99.90;;;;;;6154373;23;20419;-70
2023/09/05 06:53:38;;;;;;;4.67;4.47;;;16.10;99.90;;;;;;6153309;23;20929;-71
2023/09/05 06:56:05;;;;;;;4.10;3.83;;;16.20;99.90;;;;;;6154130;23;20427;-71
2023/09/05 06:58:32;;;;;;;4.33;4.00;;;16.30;99.90;;;;;;6154118;23;20434;-70
2023/09/05 07:01:05;;;;;;;4.00;3.80;;;16.30;99.90;;;;;;6154430;23;21147;-71
2023/09/05 07:03:32;;;;;;;4.40;4.10;;;16.40;99.90;;;;;;6154798;23;20403;-71
2023/09/05 07:05:58;;;;;;;4.43;4.13;;;16.50;99.90;;;;;;6155172;23;20835;-71
2023/09/05 07:08:25;;;;;;;4.93;4.53;;;16.60;99.90;;;;;;6153732;23;20832;-71
2023/09/05 07:10:53;;;;;;;4.33;4.03;;;16.70;99.90;;;;;;6152081;23;20743;-70
2023/09/05 07:13:20;;;;;;;4.83;3.50;;;16.80;99.90;;;;;;6153947;23;20426;-70
2023/09/05 07:15:47;;;;;;;3.83;3.63;;;16.90;99.90;;;;;;6154400;23;20925;-69
2023/09/05 07:18:13;;;;;;;5.07;4.63;;;17.00;99.90;;;;;;6152548;23;20994;-70
2023/09/05 07:20:40;;;;;;;4.43;4.23;;;17.20;99.90;;;;;;6148944;23;20419;-70
2023/09/05 07:23:07;;;;;;;4.20;4.00;;;17.30;99.90;;;;;;6152549;23;20419;-69
2023/09/05 07:25:38;;;;;;;4.00;3.63;;;17.40;99.90;;;;;;6153095;23;20421;-70
2023/09/05 07:28:06;;;;;;;5.57;5.27;;;17.60;99.90;;;;;;6152427;23;20438;-69
2023/09/05 07:30:33;;;;;;;5.33;4.93;;;17.70;99.90;;;;;;6147725;23;20479;-69
2023/09/05 07:33:00;;;;;;;4.57;4.13;;;17.80;99.90;;;;;;6148883;23;20717;-70
2023/09/05 07:35:27;;;;;;;6.93;4.37;;;18.00;99.90;;;;;;6153099;23;20419;-69
2023/09/05 07:37:53;;;;;;;3.83;3.63;;;18.10;99.90;;;;;;6149059;23;20417;-70
2023/09/05 07:40:22;;;;;;;3.30;3.20;;;18.20;99.90;;;;;;6150103;23;20421;-70
2023/09/05 07:42:49;;;;;;;3.43;3.23;;;18.30;99.90;;;;;;6149920;23;20421;-70
2023/09/05 07:45:17;;;;;;;4.80;4.60;;;18.60;99.90;;;;;;6150184;23;20429;-70
2023/09/05 07:47:44;;;;;;;4.43;4.17;;;18.70;99.90;;;;;;6148561;23;20445;-70
2023/09/05 07:50:11;;;;;;;3.53;3.43;;;18.90;99.90;;;;;;6150035;23;20443;-70
2023/09/05 07:52:38;;;;;;;3.63;3.53;;;19.00;99.90;;;;;;6149106;23;20421;-70
2023/09/05 07:55:05;;;;;;;3.17;3.00;;;19.00;99.90;;;;;;6150081;23;20754;-71
2023/09/05 07:57:32;;;;;;;3.80;3.60;;;19.00;99.90;;;;;;6150121;23;20486;-70
2023/09/05 07:59:59;;;;;;;4.37;4.10;;;19.00;99.90;;;;;;6149483;23;20445;-70
2023/09/05 08:02:27;;;;;;;3.47;3.37;;;19.10;99.90;;;;;;6149003;23;20421;-69
2023/09/05 08:04:53;;;;;;;4.00;3.80;;;19.40;99.90;;;;;;6149979;23;20433;-70
2023/09/05 08:07:20;;;;;;;3.80;3.60;;;19.60;99.90;;;;;;6153648;23;20422;-70
2023/09/05 08:09:47;;;;;;;3.77;3.57;;;19.70;99.90;;;;;;6154121;23;20446;-70
2023/09/05 08:12:14;;;;;;;3.27;3.17;;;19.80;99.90;;;;;;6153812;23;20804;-71
2023/09/05 08:14:41;;;;;;;4.03;3.90;;;19.90;99.90;;;;;;6154186;23;20741;-71
2023/09/05 08:17:08;;;;;;;3.77;3.47;;;20.10;99.90;;;;;;6154070;23;20426;-71
2023/09/05 08:19:36;;;;;;;3.37;3.17;;;20.20;99.90;;;;;;6153714;23;20439;-70
2023/09/05 08:22:05;;;;;;;3.33;3.23;;;20.30;99.90;;;;;;6154385;23;20423;-71
2023/09/05 08:24:32;;;;;;;3.37;3.17;;;20.40;99.90;;;;;;6153462;23;20419;-70
2023/09/05 08:27:02;;;;;;;3.17;3.17;;;20.40;99.90;;;;;;6153837;23;20426;-70
2023/09/05 08:29:28;;;;;;;2.97;2.87;;;20.40;99.90;;;;;;6152587;23;20955;-71
2023/09/05 08:31:55;;;;;;;3.50;3.40;;;20.40;99.90;;;;;;6153868;23;20418;-71
2023/09/05 08:34:22;;;;;;;3.37;3.10;;;20.50;99.90;;;;;;6153734;23;20420;-71
2023/09/05 08:36:50;;;;;;;3.30;3.00;;;20.70;99.90;;;;;;6152804;23;20427;-70
2023/09/05 08:39:17;;;;;;;2.80;2.70;;;20.60;99.90;;;;;;6153175;23;20505;-70
2023/09/05 08:41:43;;;;;;;2.33;2.33;;;20.80;99.90;;;;;;6155050;23;20419;-70
2023/09/05 08:44:11;;;;;;;3.43;3.23;;;21.10;99.90;;;;;;6155150;23;20430;-71
2023/09/05 08:46:40;;;;;;;2.60;2.50;;;21.40;99.90;;;;;;6155934;23;20448;-71
2023/09/05 08:49:07;;;;;;;2.80;2.70;;;21.50;99.90;;;;;;6154929;23;20467;-71
2023/09/05 08:51:39;;;;;;;2.87;2.77;;;21.50;99.90;;;;;;6155913;23;20503;-71
2023/09/05 08:54:10;;;;;;;2.97;2.87;;;21.40;99.90;;;;;;6155022;23;20445;-71
2023/09/05 08:56:38;;;;;;;2.37;2.37;;;21.50;99.90;;;;;;6157159;23;20405;-70
2023/09/05 08:59:05;;;;;;;2.70;2.60;;;21.90;99.90;;;;;;6154847;23;20440;-71
2023/09/05 09:01:33;;;;;;;2.80;2.70;;;22.10;99.90;;;;;;6156047;23;20424;-70
2023/09/05 09:04:00;;;;;;;2.80;2.70;;;22.00;99.90;;;;;;6153660;23;20421;-71
2023/09/05 09:06:27;;;;;;;2.57;2.47;;;22.10;99.90;;;;;;6154983;23;20449;-70
2023/09/05 09:08:55;;;;;;;2.87;2.77;;;22.40;99.90;;;;;;6154621;23;20503;-71
2023/09/05 09:11:24;;;;;;;3.03;2.93;;;22.50;99.90;;;;;;6155495;23;20481;-70
2023/09/05 09:13:58;;;;;;;2.17;2.17;;;22.70;99.90;;;;;;6155747;23;20432;-70
2023/09/05 09:16:25;;;;;;;2.80;2.70;;;22.70;99.90;;;;;;6156051;23;20452;-70
2023/09/05 09:19:02;;;;;;;2.10;2.10;;;22.60;99.90;;;;;;6153643;23;20931;-70
2023/09/05 09:21:29;;;;;;;2.30;2.30;;;22.60;99.90;;;;;;6155406;23;20405;-70
2023/09/05 09:23:59;;;;;;;2.27;2.17;;;22.50;99.90;;;;;;6152281;23;20429;-69
2023/09/05 09:26:29;;;;;;;1.97;1.97;;;22.60;99.90;;;;;;6154920;23;20463;-70
2023/09/05 09:28:55;;;;;;;2.10;2.10;;;22.60;99.90;;;;;;6153640;23;20541;-71
2023/09/05 09:31:26;;;;;;;2.03;1.93;;;22.80;99.90;;;;;;6153953;23;20456;-71
2023/09/05 09:33:57;;;;;;;1.67;1.67;;;22.90;99.90;;;;;;6155211;23;20404;-70
2023/09/05 09:36:24;;;;;;;1.60;1.60;;;23.10;99.90;;;;;;6153143;23;20457;-70
2023/09/05 09:38:51;;;;;;;2.23;2.20;;;23.30;99.90;;;;;;6154129;23;20451;-70
2023/09/05 09:41:21;;;;;;;4.43;2.17;;;23.30;99.90;;;;;;6153685;23;20423;-71
2023/09/05 09:43:55;;;;;;;2.00;2.00;;;23.30;99.90;;;;;;6151923;23;20422;-70
2023/09/05 09:46:24;;;;;;;2.37;2.37;;;23.40;99.90;;;;;;6154756;23;20548;-70
2023/09/05 09:48:55;;;;;;;1.70;1.70;;;23.50;99.90;;;;;;6153749;23;20986;-69
2023/09/05 09:51:24;;;;;;;1.90;1.63;;;23.50;99.90;;;;;;6154631;23;20418;-70
2023/09/05 09:53:52;;;;;;;1.63;1.63;;;23.60;99.90;;;;;;6153107;23;20423;-69
2023/09/05 09:56:20;;;;;;;1.77;1.77;;;23.90;99.90;;;;;;6153469;23;20973;-70
2023/09/05 09:58:50;;;;;;;2.00;1.90;;;23.90;99.90;;;;;;6153203;23;20435;-69
2023/09/05 10:01:18;;;;;;;2.10;2.10;;;24.00;99.90;;;;;;6154151;23;20441;-70
2023/09/05 10:03:45;;;;;;;1.70;1.60;;;24.10;99.90;;;;;;6153925;23;20925;-69
2023/09/05 10:06:12;;;;;;;1.60;1.60;;;24.10;99.90;;;;;;6154538;23;20424;-70
2023/09/05 10:08:39;;;;;;;1.70;1.70;;;24.20;99.90;;;;;;6154176;23;20533;-71
2023/09/05 10:11:09;;;;;;;1.70;1.67;;;24.40;99.90;;;;;;6154077;23;20422;-71
2023/09/05 10:13:38;;;;;;;1.63;1.63;;;24.70;99.90;;;;;;6154896;23;20476;-70
2023/09/05 10:16:06;;;;;;;2.10;2.10;;;24.80;99.90;;;;;;6154793;23;20421;-71
2023/09/05 10:18:38;;;;;;;1.90;1.80;;;25.00;99.90;;;;;;6154984;23;20447;-70
2023/09/05 10:21:06;;;;;;;1.83;1.73;;;24.80;99.90;;;;;;6153822;23;20942;-71
2023/09/05 10:23:36;;;;;;;2.43;2.10;;;24.70;99.90;;;;;;6152598;23;20421;-71
2023/09/05 10:26:05;;;;;;;1.60;1.60;;;24.80;99.90;;;;;;6154145;23;20403;-70
2023/09/05 10:28:32;;;;;;;2.47;2.37;;;25.00;99.90;;;;;;6163284;23;20994;-70
2023/09/05 10:31:06;;;;;;;1.80;1.80;;;25.10;99.90;;;;;;6155042;23;20419;-71
2023/09/05 10:33:36;;;;;;;1.80;1.80;;;25.30;99.90;;;;;;6154241;23;20405;-70
2023/09/05 10:36:04;;;;;;;3.23;1.73;;;25.50;99.90;;;;;;6154026;23;20411;-70
2023/09/05 10:38:36;;;;;;;1.70;1.70;;;25.30;99.90;;;;;;6154002;23;20466;-70
2023/09/05 10:41:03;;;;;;;1.80;1.80;;;25.40;99.90;;;;;;6154317;23;20788;-70
2023/09/05 10:43:29;;;;;;;1.17;1.17;;;25.60;99.90;;;;;;6154379;23;20429;-71
2023/09/05 10:45:59;;;;;;;1.73;1.73;;;25.70;99.90;;;;;;6153176;23;20420;-71
2023/09/05 10:48:37;;;;;;;1.47;1.47;;;25.70;99.90;;;;;;6151513;23;20492;-71
2023/09/05 10:51:06;;;;;;;1.50;1.50;;;25.60;99.90;;;;;;6153681;23;20410;-71
2023/09/05 10:53:33;;;;;;;1.50;1.50;;;25.60;99.90;;;;;;6153373;23;20458;-69
2023/09/05 10:56:00;;;;;;;1.37;1.37;;;25.50;99.90;;;;;;6154253;23;20429;-71
2023/09/05 10:58:54;;;;;;;1.40;1.40;;;25.70;99.90;;;;;;6153506;23;20519;-71
2023/09/05 11:01:52;;;;;;;1.40;1.40;;;25.60;99.90;;;;;;6152145;23;20884;-71
2023/09/05 11:04:26;;;;;;;1.33;1.13;;;25.50;99.90;;;;;;6152107;23;20409;-70
2023/09/05 11:06:57;;;;;;;1.27;1.27;;;25.90;99.90;;;;;;6154162;23;20428;-71
2023/09/05 11:09:24;;;;;;;1.17;1.17;;;26.00;99.90;;;;;;6152661;23;20452;-70
2023/09/05 11:11:52;;;;;;;1.20;1.20;;;26.10;99.90;;;;;;6153983;23;20526;-70
2023/09/05 11:14:30;;;;;;;2.73;1.23;;;26.20;99.90;;;;;;6153696;23;20430;-71
2023/09/05 11:16:56;;;;;;;1.30;1.30;;;26.30;99.90;;;;;;6153558;23;20487;-71
2023/09/05 11:19:47;;;;;;;1.47;1.47;;;26.60;99.90;;;;;;6154056;23;20466;-69
2023/09/05 11:22:17;;;;;;;1.30;1.30;;;26.60;99.90;;;;;;6143331;23;20923;-70
2023/09/05 11:24:47;;;;;;;1.20;1.20;;;26.60;99.90;;;;;;6152627;23;20402;-70
2023/09/05 11:27:19;;;;;;;1.23;1.23;;;26.60;99.90;;;;;;6153668;23;20508;-69
2023/09/05 11:29:47;;;;;;;1.00;1.00;;;26.50;99.90;;;;;;6152225;23;20966;-70
2023/09/05 11:32:14;;;;;;;1.37;1.30;;;26.50;99.90;;;;;;6153155;23;20701;-72
2023/09/05 11:34:47;;;;;;;0.97;0.97;;;26.40;99.90;;;;;;6153063;23;20512;-69
2023/09/05 11:37:18;;;;;;;1.03;1.03;;;26.50;99.90;;;;;;6152569;23;20424;-70
2023/09/05 11:39:46;;;;;;;1.00;1.00;;;26.50;99.90;;;;;;6150081;23;20435;-69
2023/09/05 11:42:22;;;;;;;1.03;1.03;;;26.60;99.90;;;;;;6148717;23;20510;-70
2023/09/05 11:44:49;;;;;;;1.00;1.00;;;26.70;99.90;;;;;;6151744;23;20428;-70
2023/09/05 11:47:16;;;;;;;1.10;1.10;;;27.00;99.90;;;;;;6152516;23;20426;-66
2023/09/05 11:49:44;;;;;;;1.00;1.00;;;27.00;99.90;;;;;;6150552;23;20531;-69
2023/09/05 11:52:13;;;;;;;1.10;1.00;;;26.80;99.90;;;;;;6150481;23;20423;-70
2023/09/05 11:54:40;;;;;;;0.80;0.80;;;26.70;99.90;;;;;;6151890;23;20428;-69
2023/09/05 11:57:08;;;;;;;1.03;1.03;;;26.60;99.90;;;;;;6152573;23;20424;-70
2023/09/05 11:59:35;;;;;;;0.90;0.90;;;26.60;99.90;;;;;;6124231;23;20416;-69
2023/09/05 12:02:08;;;;;;;0.77;0.77;;;26.60;99.90;;;;;;6123415;23;20424;-70
2023/09/05 12:04:35;;;;;;;1.10;1.10;;;26.60;99.90;;;;;;6123424;23;20832;-69
2023/09/05 12:07:05;;;;;;;1.33;1.33;;;26.60;99.90;;;;;;6123825;23;20475;-69
2023/09/05 12:09:33;;;;;;;1.03;1.03;;;26.90;99.90;;;;;;6122527;23;20475;-70
2023/09/05 12:12:10;;;;;;;0.93;0.93;;;26.90;99.90;;;;;;6123996;23;20831;-69
2023/09/05 12:14:51;;;;;;;1.00;1.00;;;27.00;99.90;;;;;;6123654;23;20782;-69
2023/09/05 12:17:19;;;;;;;1.90;1.00;;;27.20;99.90;;;;;;6123048;23;20762;-69
2023/09/05 12:19:47;;;;;;;1.17;0.80;;;27.10;99.90;;;;;;6123641;23;20420;-69
2023/09/05 12:22:25;;;;;;;0.90;0.90;;;27.00;99.90;;;;;;6122454;23;20458;-69
2023/09/05 12:27:45;;;;;;;1.13;1.13;;;27.20;99.90;;;;;;5087140;27;20564;-70
2023/09/05 12:30:27;;;;;;;1.03;0.73;;;27.10;99.90;;;;;;5067395;28;20841;-70
2023/09/05 12:32:56;;;;;;;1.03;1.03;;;27.20;99.90;;;;;;5056313;28;20463;-70
2023/09/05 12:35:25;;;;;;;7.93;1.40;;;27.30;99.90;;;;;;5063891;28;20463;-71
2023/09/05 12:37:52;;;;;;;1.10;1.10;;;27.20;99.90;;;;;;5061041;28;20562;-70
2023/09/05 12:40:18;;;;;;;1.20;1.20;;;27.20;99.90;;;;;;5060107;28;20455;-70
2023/09/05 12:42:46;;;;;;;1.17;1.17;;;27.30;99.90;;;;;;5068690;28;20459;-69
2023/09/05 12:45:14;;;;;;;1.10;1.10;;;27.60;99.90;;;;;;5063203;28;20466;-69
2023/09/05 12:47:41;;;;;;;1.10;1.10;;;27.50;99.90;;;;;;5068177;28;20851;-69
2023/09/05 12:50:12;;;;;;;0.83;0.83;;;27.50;99.90;;;;;;5067862;28;20459;-70
2023/09/05 12:52:41;;;;;;;0.90;0.90;;;27.40;99.90;;;;;;5067583;28;20940;-70
2023/09/05 12:55:08;;;;;;;0.87;0.87;;;27.50;99.90;;;;;;5060733;28;20504;-69
2023/09/05 12:57:35;;;;;;;1.20;1.03;;;27.70;99.90;;;;;;5059006;28;20486;-70
2023/09/05 13:00:04;;;;;;;1.00;1.00;;;27.80;99.90;;;;;;5067368;28;20452;-70
2023/09/05 13:02:30;;;;;;;0.80;0.80;;;27.70;99.90;;;;;;5049594;28;20468;-69
2023/09/05 13:04:57;;;;;;;1.17;1.17;;;27.60;99.90;;;;;;5048723;28;20468;-69
2023/09/05 13:07:24;;;;;;;0.90;0.90;;;27.50;99.90;;;;;;5067069;28;20475;-68
2023/09/05 13:09:50;;;;;;;0.90;0.90;;;27.60;99.90;;;;;;5067691;28;20486;-69
2023/09/05 13:12:17;;;;;;;1.10;1.10;;;27.60;99.90;;;;;;5063417;28;20472;-69
2023/09/05 13:14:45;;;;;;;0.90;0.90;;;27.80;99.90;;;;;;5055014;28;20460;-69
2023/09/05 13:17:13;;;;;;;1.20;1.20;;;27.90;99.90;;;;;;5060385;28;20463;-70
2023/09/05 13:19:40;;;;;;;1.20;1.20;;;28.00;99.90;;;;;;5065042;28;20490;-70
2023/09/05 13:22:07;;;;;;;1.10;1.10;;;28.00;99.90;;;;;;5062004;28;20463;-69
2023/09/05 13:24:34;;;;;;;1.03;1.03;;;28.00;99.90;;;;;;5058190;28;20471;-69
2023/09/05 13:27:01;;;;;;;1.20;1.20;;;28.00;99.90;;;;;;5064346;28;20501;-70
2023/09/05 13:29:27;;;;;;;1.00;1.00;;;28.10;99.90;;;;;;5066149;28;20483;-70
2023/09/05 13:31:55;;;;;;;0.93;0.93;;;28.10;99.90;;;;;;5056356;28;20464;-69
2023/09/05 13:34:23;;;;;;;1.70;1.00;;;28.00;99.90;;;;;;5066658;28;20490;-69
2023/09/05 13:36:50;;;;;;;1.10;1.10;;;27.80;99.90;;;;;;5061177;28;20483;-69
2023/09/05 13:39:17;;;;;;;1.30;1.30;;;27.80;99.90;;;;;;5042823;28;20490;-70
2023/09/05 13:41:43;;;;;;;0.63;0.63;;;27.80;99.90;;;;;;5038109;28;20483;-69
2023/09/05 13:44:10;;;;;;;1.00;1.00;;;28.00;99.90;;;;;;5044609;28;20460;-69
2023/09/05 13:46:37;;;;;;;1.00;1.00;;;28.00;99.90;;;;;;5043121;28;20488;-70
2023/09/05 13:49:04;;;;;;;0.70;0.70;;;27.80;99.90;;;;;;5049193;28;20492;-69
2023/09/05 13:51:34;;;;;;;0.80;0.80;;;27.80;99.90;;;;;;5044714;28;20856;-70
2023/09/05 13:54:01;;;;;;;1.23;1.20;;;27.80;99.90;;;;;;5034438;28;20473;-71
2023/09/05 13:56:27;;;;;;;1.10;1.10;;;27.90;99.90;;;;;;5051646;28;20452;-70
2023/09/05 13:58:54;;;;;;;0.80;0.80;;;27.90;99.90;;;;;;5053140;28;20472;-69
2023/09/05 14:01:21;;;;;;;1.73;1.20;;;27.90;99.90;;;;;;5036329;28;21026;-70
2023/09/05 14:03:48;;;;;;;1.10;1.10;;;27.80;99.90;;;;;;5034990;28;20469;-71
2023/09/05 14:06:15;;;;;;;1.30;1.30;;;27.80;99.90;;;;;;5041114;28;20516;-70
2023/09/05 14:08:43;;;;;;;1.00;1.00;;;27.80;99.90;;;;;;5045233;28;20489;-71
2023/09/05 14:11:12;;;;;;;1.23;1.23;;;27.90;99.90;;;;;;5051212;28;20453;-71
2023/09/05 14:13:39;;;;;;;1.33;1.33;;;27.80;99.90;;;;;;5034089;28;20568;-71
2023/09/05 14:16:05;;;;;;;1.30;1.30;;;27.70;99.90;;;;;;5052461;28;20484;-71
2023/09/05 14:18:32;;;;;;;1.93;1.50;;;27.80;99.90;;;;;;5053026;28;20480;-70
2023/09/05 14:20:59;;;;;;;1.40;1.40;;;27.90;99.90;;;;;;5053188;28;20460;-70
2023/09/05 14:23:25;;;;;;;1.40;1.40;;;27.90;99.90;;;;;;5044630;28;20473;-70
2023/09/05 14:25:53;;;;;;;1.90;1.87;;;28.00;99.90;;;;;;5047250;28;20475;-70
2023/09/05 14:28:20;;;;;;;1.63;1.63;;;28.00;99.90;;;;;;5052655;28;20495;-70
2023/09/05 14:30:46;;;;;;;1.57;1.57;;;28.00;99.90;;;;;;5053058;28;20464;-70
2023/09/05 14:33:13;;;;;;;2.30;2.20;;;28.00;99.90;;;;;;5040154;28;20823;-70
2023/09/05 14:35:40;;;;;;;1.23;1.23;;;28.10;99.90;;;;;;5041155;28;20475;-70
2023/09/05 14:38:06;;;;;;;1.30;1.30;;;28.10;99.90;;;;;;5049734;28;20511;-71
2023/09/05 14:40:33;;;;;;;2.00;1.90;;;27.90;99.90;;;;;;5052797;28;20459;-70
2023/09/05 14:43:01;;;;;;;1.40;1.40;;;27.90;99.90;;;;;;5046828;28;20468;-70
2023/09/05 14:45:28;;;;;;;1.63;1.63;;;27.80;99.90;;;;;;5051713;28;20547;-69
2023/09/05 14:47:55;;;;;;;1.83;1.73;;;27.90;99.90;;;;;;5051358;28;20488;-71
2023/09/05 14:50:22;;;;;;;1.70;1.70;;;28.00;99.90;;;;;;5031587;28;20780;-70
2023/09/05 14:52:54;;;;;;;1.60;1.60;;;28.00;99.90;;;;;;5052240;28;20954;-69
2023/09/05 14:55:21;;;;;;;1.60;1.60;;;28.10;99.90;;;;;;5050132;28;20555;-70
2023/09/05 14:57:48;;;;;;;1.90;1.90;;;28.20;99.90;;;;;;5052695;28;20473;-70
2023/09/05 15:00:16;;;;;;;1.50;1.50;;;28.20;99.90;;;;;;5049183;28;20479;-70
2023/09/05 15:02:43;;;;;;;1.67;1.67;;;28.10;99.90;;;;;;5048962;28;20831;-71
2023/09/05 15:05:10;;;;;;;1.60;1.50;;;28.00;99.90;;;;;;5035428;28;20480;-70
2023/09/05 15:07:37;;;;;;;1.60;1.50;;;28.00;99.90;;;;;;5035793;28;20489;-71
2023/09/05 15:10:04;;;;;;;1.80;1.80;;;27.80;99.90;;;;;;5034480;28;20837;-71
2023/09/05 15:12:31;;;;;;;1.20;1.20;;;27.70;99.90;;;;;;5051530;28;20456;-70
2023/09/05 15:14:58;;;;;;;1.47;1.47;;;27.70;99.90;;;;;;5048916;28;20468;-70
2023/09/05 15:17:26;;;;;;;1.77;1.67;;;27.80;99.90;;;;;;5050490;28;20467;-70
2023/09/05 15:19:52;;;;;;;1.40;1.40;;;27.80;99.90;;;;;;5041704;28;20472;-70
2023/09/05 15:22:19;;;;;;;1.63;1.63;;;27.70;99.90;;;;;;5046632;28;20833;-70
2023/09/05 15:24:46;;;;;;;1.90;1.70;;;27.70;99.90;;;;;;5035679;28;20835;-71
2023/09/05 15:27:13;;;;;;;1.87;1.87;;;27.80;99.90;;;;;;5051628;28;20566;-70
2023/09/05 15:29:39;;;;;;;1.93;1.93;;;27.70;99.90;;;;;;5041263;28;20831;-70
2023/09/05 15:32:07;;;;;;;1.70;1.70;;;27.50;99.90;;;;;;5036642;28;20822;-70
2023/09/05 15:34:35;;;;;;;1.80;1.70;;;27.50;99.90;;;;;;5041973;28;20833;-70
2023/09/05 15:37:01;;;;;;;1.90;1.80;;;27.40;99.90;;;;;;5044594;28;20459;-70
2023/09/05 15:39:28;;;;;;;2.07;1.97;;;27.30;99.90;;;;;;5047568;28;20819;-70
2023/09/05 15:41:56;;;;;;;2.17;2.00;;;27.40;99.90;;;;;;5040805;28;20473;-70
2023/09/05 15:44:24;;;;;;;1.60;1.60;;;27.40;99.90;;;;;;5035415;28;20465;-70
2023/09/05 15:46:50;;;;;;;2.13;1.87;;;27.40;99.90;;;;;;5045075;28;20480;-70
2023/09/05 15:49:17;;;;;;;1.57;1.57;;;27.50;99.90;;;;;;5054914;28;20476;-70
2023/09/05 15:51:45;;;;;;;1.50;1.50;;;27.60;99.90;;;;;;5047074;28;20475;-71
2023/09/05 15:54:12;;;;;;;1.80;1.70;;;27.70;99.90;;;;;;5045600;28;20955;-70
2023/09/05 15:56:38;;;;;;;3.03;1.67;;;27.60;99.90;;;;;;5041579;28;20476;-70
2023/09/05 15:59:05;;;;;;;1.80;1.73;;;27.70;99.90;;;;;;5050585;28;20480;-71
2023/09/05 16:01:32;;;;;;;1.87;1.87;;;27.70;99.90;;;;;;5038580;28;20951;-70
2023/09/05 16:03:58;;;;;;;2.20;1.63;;;27.70;99.90;;;;;;5040985;28;20472;-70
2023/09/05 16:06:25;;;;;;;1.93;1.83;;;27.70;99.90;;;;;;5041404;28;20465;-70
2023/09/05 16:08:53;;;;;;;1.90;1.90;;;27.70;99.90;;;;;;5030485;28;20476;-70
2023/09/05 16:11:20;;;;;;;2.03;2.03;;;27.60;99.90;;;;;;5038973;28;20468;-69
2023/09/05 16:13:48;;;;;;;2.30;2.30;;;27.70;99.90;;;;;;5049907;28;20547;-69
2023/09/05 16:16:16;;;;;;;2.30;2.30;;;27.70;99.90;;;;;;5046069;28;20948;-69
2023/09/05 16:18:44;;;;;;;1.97;1.97;;;27.70;99.90;;;;;;5036301;28;20983;-70
2023/09/05 16:21:12;;;;;;;1.43;1.43;;;27.60;99.90;;;;;;5045204;28;20487;-70
2023/09/05 16:23:41;;;;;;;1.50;1.50;;;27.60;99.90;;;;;;5044627;28;20543;-70
2023/09/05 16:26:09;;;;;;;2.33;2.23;;;27.60;99.90;;;;;;5040924;28;20529;-69
2023/09/05 16:28:37;;;;;;;2.33;2.23;;;27.50;99.90;;;;;;5039533;28;20991;-69
2023/09/05 16:31:05;;;;;;;3.00;2.87;;;27.50;99.90;;;;;;5051001;28;20452;-70
2023/09/05 16:33:32;;;;;;;2.20;2.20;;;27.50;99.90;;;;;;5051083;28;20530;-70
2023/09/05 16:36:00;;;;;;;2.50;2.40;;;27.40;99.90;;;;;;5043075;28;20464;-70
2023/09/05 16:38:28;;;;;;;2.37;2.37;;;27.30;99.90;;;;;;5045622;28;20999;-69
2023/09/05 16:40:55;;;;;;;2.40;2.20;;;27.30;99.90;;;;;;5046178;28;20472;-70
2023/09/05 16:43:24;;;;;;;2.80;2.70;;;27.20;99.90;;;;;;5051285;28;20452;-70
2023/09/05 16:45:52;;;;;;;2.33;2.23;;;27.10;99.90;;;;;;5045690;28;20964;-70
2023/09/05 16:48:19;;;;;;;2.27;2.20;;;27.00;99.90;;;;;;5048148;28;20484;-70
2023/09/05 16:50:45;;;;;;;2.50;2.40;;;27.00;99.90;;;;;;5040605;28;20478;-69
2023/09/05 16:53:12;;;;;;;2.60;2.50;;;27.00;99.90;;;;;;5043276;28;20947;-70
2023/09/05 16:55:39;;;;;;;2.30;2.30;;;26.90;99.90;;;;;;5039576;28;20496;-69